Portada
METAR-TAF:

METAR-TAF

Aeropuertos :

Aeropuerto de Umiujaq

Umiujaq, Quebec, Canadá

latitud: 56-32N, longitud: 076-31W, altitud: 71 m

Observación

El informe se hizo hace 13 horas y 24 minutos, a las 22:00 UTC
Viento 8 kt del sur
Temperatura -23°C
Humedad 84%
Presión 1025 hPa
Visibilidad: 24.1 km
Escasas nubes a una altura de 2100 ft
Cielo nuboso a una altura de 12000 ft
Cielo cubierto a una altura de 30000 ft

METAR: CYMU 222200Z 19008KT 15SM FEW021 BKN120 OVC300 M23/M25 A3027 RMK SC1AS5CS3 SC TR LAST STFD OBS/NEXT 231300UTC SLP265

Hora: 06:24 (11:24 UTC)


TAF: falta

Observaciones y pronósticos meteorológicos de más de 4000 aeropuertos (mensajes METAR y TAF).

Los puntos amarillos y rojos representan las estaciones disponibles.

Ponga el ratón en el punto deseado para ver el nombre de la estación.

Haga clic para ver las observaciones y los pronósticos meteorológicos.

Para cambiar el mapa : haga clic en los botones verdes con una cruz de color negro para hacer un zoom, en el botón verde con un guión para alejar o en las flechas verdes para mapas adyacentes.


METAR-TAF: